createdAt,value
2018-07-12T00:00:08.773Z,100.00
2018-07-12T00:02:36.275Z,100.00
2018-07-12T00:05:03.815Z,100.00
2018-07-12T00:07:31.353Z,100.00
2018-07-12T00:09:58.844Z,100.00
2018-07-12T00:12:26.344Z,100.00
2018-07-12T00:14:53.830Z,100.00
2018-07-12T00:17:21.369Z,100.00
2018-07-12T00:19:48.833Z,100.00
2018-07-12T00:22:16.352Z,100.00
2018-07-12T00:24:43.868Z,100.00
2018-07-12T00:27:11.388Z,100.00
2018-07-12T00:29:38.862Z,100.00
2018-07-12T00:32:06.328Z,100.00
2018-07-12T00:34:33.816Z,100.00
2018-07-12T00:37:01.303Z,100.00
2018-07-12T00:39:28.850Z,100.00
2018-07-12T00:41:56.315Z,100.00
2018-07-12T00:44:23.807Z,100.00
2018-07-12T00:46:51.284Z,100.00
2018-07-12T00:49:18.782Z,100.00
2018-07-12T00:51:46.309Z,100.00
2018-07-12T00:54:13.904Z,100.00
2018-07-12T00:56:41.418Z,100.00
2018-07-12T00:59:09.072Z,100.00
2018-07-12T01:01:36.599Z,100.00
2018-07-12T01:04:04.243Z,100.00
2018-07-12T01:06:31.721Z,100.00
2018-07-12T01:08:59.239Z,100.00
2018-07-12T01:11:26.679Z,100.00
2018-07-12T01:13:54.188Z,100.00
2018-07-12T01:16:22.597Z,100.00
2018-07-12T01:18:50.093Z,100.00
2018-07-12T01:21:17.716Z,100.00
2018-07-12T01:23:45.403Z,100.00
2018-07-12T01:26:12.871Z,100.00
2018-07-12T01:28:40.429Z,100.00
2018-07-12T01:31:08.012Z,100.00
2018-07-12T01:33:35.508Z,100.00
2018-07-12T01:36:03.025Z,100.00
2018-07-12T01:38:30.533Z,100.00
2018-07-12T01:40:58.040Z,100.00
2018-07-12T01:43:25.532Z,100.00
2018-07-12T01:45:53.001Z,100.00
2018-07-12T01:48:20.513Z,100.00
2018-07-12T01:50:48.051Z,100.00
2018-07-12T01:53:15.549Z,100.00
2018-07-12T01:55:43.239Z,100.00
2018-07-12T01:58:10.820Z,100.00
2018-07-12T02:00:38.465Z,100.00
2018-07-12T02:03:05.957Z,100.00
2018-07-12T02:05:33.470Z,100.00
2018-07-12T02:08:01.221Z,100.00
2018-07-12T02:10:28.739Z,100.00
2018-07-12T02:12:56.227Z,100.00
2018-07-12T02:15:23.773Z,100.00
2018-07-12T02:17:51.296Z,100.00
2018-07-12T02:20:18.824Z,100.00
2018-07-12T02:22:46.295Z,100.00
2018-07-12T02:25:13.890Z,100.00
2018-07-12T02:27:41.465Z,100.00
2018-07-12T02:30:08.993Z,100.00
2018-07-12T02:32:36.490Z,100.00
2018-07-12T02:35:04.208Z,100.00
2018-07-12T02:37:31.700Z,100.00
2018-07-12T02:39:59.273Z,100.00
2018-07-12T02:42:26.802Z,100.00
2018-07-12T02:44:54.337Z,100.00
2018-07-12T02:47:21.816Z,100.00
2018-07-12T02:49:49.337Z,100.00
2018-07-12T02:52:16.914Z,100.00
2018-07-12T02:54:44.484Z,100.00
2018-07-12T02:57:11.966Z,100.00
2018-07-12T02:59:39.514Z,100.00
2018-07-12T03:02:07.052Z,100.00
2018-07-12T03:04:34.578Z,100.00
2018-07-12T03:07:02.099Z,100.00
2018-07-12T03:09:29.631Z,100.00
2018-07-12T03:11:57.170Z,100.00
2018-07-12T03:14:24.704Z,100.00
2018-07-12T03:16:52.241Z,100.00
2018-07-12T03:19:19.750Z,100.00
2018-07-12T03:21:47.271Z,100.00
2018-07-12T03:24:14.764Z,100.00
2018-07-12T03:26:42.313Z,100.00
2018-07-12T03:29:09.780Z,100.00
2018-07-12T03:31:37.314Z,100.00
2018-07-12T03:34:04.901Z,100.00
2018-07-12T03:36:32.384Z,100.00
2018-07-12T03:38:59.855Z,100.00
2018-07-12T03:41:27.393Z,100.00
2018-07-12T03:43:54.932Z,100.00
2018-07-12T03:46:22.476Z,100.00
2018-07-12T03:48:49.992Z,100.00
2018-07-12T03:51:17.656Z,100.00
2018-07-12T03:53:45.206Z,100.00
2018-07-12T03:56:12.821Z,100.00
2018-07-12T03:58:40.286Z,100.00
2018-07-12T04:01:07.788Z,100.00
2018-07-12T04:03:35.320Z,100.00
2018-07-12T04:06:02.850Z,100.00
2018-07-12T04:08:30.367Z,100.00
2018-07-12T04:10:57.883Z,100.00
2018-07-12T04:13:25.383Z,100.00
2018-07-12T04:15:52.842Z,100.00
2018-07-12T04:18:20.344Z,100.00
2018-07-12T04:20:47.818Z,100.00
2018-07-12T04:23:15.338Z,100.00
2018-07-12T04:25:42.875Z,100.00
2018-07-12T04:28:10.396Z,100.00
2018-07-12T04:30:37.896Z,100.00
2018-07-12T04:33:05.403Z,100.00
2018-07-12T04:35:32.884Z,100.00
2018-07-12T04:38:00.569Z,100.00
2018-07-12T04:40:28.083Z,100.00
2018-07-12T04:42:55.586Z,100.00
2018-07-12T04:45:23.044Z,100.00
2018-07-12T04:47:50.534Z,100.00
2018-07-12T04:50:17.994Z,100.00
2018-07-12T04:52:45.537Z,100.00
2018-07-12T04:55:12.994Z,100.00
2018-07-12T04:57:40.515Z,100.00
2018-07-12T05:00:08.019Z,100.00
2018-07-12T05:02:35.555Z,100.00
2018-07-12T05:05:03.081Z,99.96
2018-07-12T05:07:30.601Z,99.45
2018-07-12T05:09:58.089Z,98.88
2018-07-12T05:12:25.576Z,98.57
2018-07-12T05:14:53.043Z,98.54
2018-07-12T05:17:20.574Z,98.02
2018-07-12T05:19:48.043Z,97.50
2018-07-12T05:22:15.555Z,96.77
2018-07-12T05:24:43.036Z,96.88
2018-07-12T05:27:10.576Z,96.57
2018-07-12T05:29:38.118Z,96.45
2018-07-12T05:32:05.636Z,96.68
2018-07-12T05:34:33.076Z,96.47
2018-07-12T05:37:02.427Z,97.14
2018-07-12T05:39:31.234Z,97.04
2018-07-12T05:42:00.050Z,97.34
2018-07-12T05:44:28.870Z,97.13
2018-07-12T05:46:57.759Z,97.53
2018-07-12T05:49:26.622Z,97.20
2018-07-12T05:51:55.506Z,97.03
2018-07-12T05:54:24.332Z,96.85
2018-07-12T05:56:53.108Z,96.31
2018-07-12T05:59:22.436Z,95.92
2018-07-12T06:02:02.369Z,95.39
2018-07-12T06:04:31.213Z,94.65
2018-07-12T06:07:00.033Z,94.24
2018-07-12T06:09:28.863Z,94.53
2018-07-12T06:11:57.671Z,95.05
2018-07-12T06:14:26.729Z,95.21
2018-07-12T06:16:55.588Z,94.34
2018-07-12T06:19:24.457Z,93.12
2018-07-12T06:21:53.226Z,92.34
2018-07-12T06:24:22.183Z,93.18
2018-07-12T06:26:51.099Z,92.75
2018-07-12T06:29:19.996Z,90.99
2018-07-12T06:31:48.902Z,90.02
2018-07-12T06:34:17.737Z,90.60
2018-07-12T06:36:46.566Z,91.39
2018-07-12T06:39:15.448Z,89.80
2018-07-12T06:41:44.279Z,90.07
2018-07-12T06:44:14.652Z,90.17
2018-07-12T06:46:43.521Z,89.76
2018-07-12T06:49:12.701Z,90.63
2018-07-12T06:51:41.583Z,89.57
2018-07-12T06:54:10.522Z,89.81
2018-07-12T06:56:39.477Z,87.49
2018-07-12T06:59:08.517Z,86.97
2018-07-12T07:01:37.553Z,87.43
2018-07-12T07:04:06.476Z,87.68
2018-07-12T07:06:35.490Z,86.82
2018-07-12T07:09:05.614Z,87.13
2018-07-12T07:11:34.503Z,87.71
2018-07-12T07:14:03.373Z,87.58
2018-07-12T07:16:34.280Z,87.28
2018-07-12T07:19:03.338Z,87.35
2018-07-12T07:21:32.432Z,88.59
2018-07-12T07:24:01.697Z,88.68
2018-07-12T07:26:30.701Z,87.07
2018-07-12T07:28:59.710Z,87.11
2018-07-12T07:31:28.741Z,84.35
2018-07-12T07:33:57.757Z,76.37
2018-07-12T07:36:26.760Z,81.79
2018-07-12T07:38:55.801Z,79.92
2018-07-12T07:41:24.848Z,79.54
2018-07-12T07:43:53.779Z,80.40
2018-07-12T07:46:23.063Z,79.70
2018-07-12T07:48:52.085Z,77.95
2018-07-12T07:51:21.026Z,80.17
2018-07-12T07:56:40.047Z,78.94
2018-07-12T07:59:08.970Z,78.97
2018-07-12T08:01:38.060Z,80.68
2018-07-12T08:04:07.025Z,78.53
2018-07-12T08:06:36.204Z,75.47
2018-07-12T08:09:06.565Z,76.96
2018-07-12T08:11:35.519Z,76.57
2018-07-12T08:14:04.415Z,75.96
2018-07-12T08:16:33.314Z,76.54
2018-07-12T08:19:02.356Z,77.69
2018-07-12T08:21:31.305Z,77.93
2018-07-12T08:24:00.320Z,75.71
2018-07-12T08:26:29.185Z,73.53
2018-07-12T08:28:58.031Z,71.87
2018-07-12T08:31:27.036Z,70.78
2018-07-12T08:33:55.993Z,72.49
2018-07-12T08:36:25.017Z,74.42
2018-07-12T08:38:54.055Z,75.44
2018-07-12T08:41:23.043Z,73.38
2018-07-12T08:43:52.158Z,72.34
2018-07-12T08:46:21.200Z,74.91
2018-07-12T08:48:50.081Z,75.53
2018-07-12T08:51:19.121Z,75.03
2018-07-12T08:53:48.063Z,74.97
2018-07-12T08:56:17.069Z,76.34
2018-07-12T08:58:46.113Z,75.06
2018-07-12T09:01:15.007Z,73.72
2018-07-12T09:03:45.031Z,73.09
2018-07-12T09:06:33.280Z,74.52
2018-07-12T09:16:49.052Z,72.82
2018-07-12T09:19:41.995Z,70.81
2018-07-12T09:22:11.739Z,67.28
2018-07-12T09:24:40.676Z,69.20
2018-07-12T09:27:09.888Z,68.75
2018-07-12T09:29:38.811Z,68.71
2018-07-12T09:32:07.885Z,63.27
2018-07-12T09:34:36.888Z,65.14
2018-07-12T09:37:05.951Z,60.35
2018-07-12T09:39:35.276Z,60.23
2018-07-12T09:42:04.184Z,63.67
2018-07-12T09:44:33.260Z,62.53
2018-07-12T09:47:02.206Z,58.86
2018-07-12T09:49:31.182Z,60.30
2018-07-12T09:52:00.093Z,61.21
2018-07-12T09:54:29.090Z,60.69
2018-07-12T09:57:08.853Z,59.94
2018-07-12T09:59:37.812Z,59.18
2018-07-12T10:02:11.692Z,60.08
2018-07-12T10:04:40.675Z,62.65
2018-07-12T10:07:14.876Z,61.20
2018-07-12T10:09:48.922Z,59.05
2018-07-12T10:12:23.056Z,60.68
2018-07-12T10:14:56.141Z,58.28
2018-07-12T10:17:30.142Z,57.02
2018-07-12T10:19:59.120Z,58.66
2018-07-12T10:22:28.013Z,57.22
2018-07-12T10:24:57.095Z,58.48
2018-07-12T10:27:26.138Z,53.91
2018-07-12T10:29:55.200Z,55.74
2018-07-12T10:32:24.223Z,55.16
2018-07-12T10:34:53.293Z,55.46
2018-07-12T10:37:22.276Z,53.95
2018-07-12T10:39:51.191Z,55.86
2018-07-12T10:42:20.261Z,52.68
2018-07-12T10:44:49.311Z,55.51
2018-07-12T10:47:18.376Z,52.36
2018-07-12T10:49:47.453Z,49.70
2018-07-12T10:52:16.452Z,50.10
2018-07-12T10:54:45.538Z,48.33
2018-07-12T10:57:14.540Z,50.31
2018-07-12T10:59:43.613Z,53.05
2018-07-12T11:02:12.593Z,50.81
2018-07-12T11:04:41.734Z,51.98
2018-07-12T11:07:10.763Z,49.84
2018-07-12T11:09:39.973Z,50.23
2018-07-12T11:12:08.865Z,49.00
2018-07-12T11:14:37.951Z,49.51
2018-07-12T11:17:07.006Z,46.43
2018-07-12T11:19:36.021Z,48.81
2018-07-12T11:22:05.086Z,48.29
2018-07-12T11:24:33.986Z,47.17
2018-07-12T11:27:03.597Z,47.63
2018-07-12T11:29:43.540Z,48.67
2018-07-12T11:32:12.523Z,49.38
2018-07-12T11:34:41.489Z,50.75
2018-07-12T11:37:16.037Z,48.81
2018-07-12T11:39:45.070Z,50.44
2018-07-12T11:42:14.080Z,52.28
2018-07-12T11:44:43.025Z,50.91
2018-07-12T11:47:12.405Z,50.96
2018-07-12T11:49:41.340Z,50.40
2018-07-12T11:52:10.275Z,49.91
2018-07-12T11:54:40.105Z,50.43
2018-07-12T11:57:09.032Z,49.81
2018-07-12T11:59:37.893Z,49.52
2018-07-12T12:02:06.930Z,50.56
2018-07-12T12:04:35.926Z,50.16
2018-07-12T12:07:12.066Z,49.97
2018-07-12T12:09:41.278Z,50.83
2018-07-12T12:12:10.294Z,48.56
2018-07-12T12:14:39.203Z,47.56
2018-07-12T12:17:08.251Z,49.46
2018-07-12T12:19:37.212Z,47.19
2018-07-12T12:22:06.128Z,46.62
2018-07-12T12:24:35.098Z,47.58
2018-07-12T12:27:04.048Z,44.74
2018-07-12T12:29:32.951Z,47.01
2018-07-12T12:32:01.913Z,44.73
2018-07-12T12:34:30.852Z,45.46
2018-07-12T12:36:59.808Z,44.54
2018-07-12T12:39:28.892Z,44.43
2018-07-12T12:41:57.900Z,42.13
2018-07-12T12:44:26.948Z,43.21
2018-07-12T12:46:56.272Z,44.60
2018-07-12T12:49:25.204Z,45.60
2018-07-12T12:51:54.286Z,44.90
2018-07-12T12:54:23.119Z,41.02
2018-07-12T12:56:52.062Z,42.60
2018-07-12T12:59:21.044Z,42.90
2018-07-12T13:01:50.107Z,42.39
2018-07-12T13:04:19.168Z,40.92
2018-07-12T13:06:48.077Z,42.63
2018-07-12T13:09:17.164Z,41.82
2018-07-12T13:11:46.072Z,42.53
2018-07-12T13:14:15.051Z,41.78
2018-07-12T13:16:44.128Z,41.89
2018-07-12T13:19:13.164Z,41.53
2018-07-12T13:21:42.097Z,42.13
2018-07-12T13:24:11.146Z,42.90
2018-07-12T13:26:40.099Z,44.20
2018-07-12T13:29:09.119Z,43.33
2018-07-12T13:31:38.160Z,42.17
2018-07-12T13:34:07.389Z,42.32
2018-07-12T13:36:36.736Z,43.69
2018-07-12T13:39:07.445Z,43.55
2018-07-12T13:41:36.392Z,44.31
2018-07-12T13:44:16.810Z,44.16
2018-07-12T13:46:47.040Z,43.95
2018-07-12T13:49:16.279Z,41.48
2018-07-12T13:51:46.454Z,41.94
2018-07-12T13:54:15.660Z,40.71
2018-07-12T13:56:44.834Z,39.68
2018-07-12T13:59:13.872Z,40.05
2018-07-12T14:01:42.961Z,40.52
2018-07-12T14:04:12.377Z,40.37
2018-07-12T14:06:41.366Z,40.90
2018-07-12T14:09:12.639Z,39.87
2018-07-12T14:11:41.700Z,40.41
2018-07-12T14:14:10.822Z,40.50
2018-07-12T14:16:40.084Z,41.90
2018-07-12T14:19:09.122Z,41.00
2018-07-12T14:21:37.999Z,41.98
2018-07-12T14:24:06.988Z,42.92
2018-07-12T14:26:35.977Z,43.60
2018-07-12T14:29:04.896Z,42.19
2018-07-12T14:31:33.932Z,42.23
2018-07-12T14:34:02.989Z,42.95
2018-07-12T14:36:31.911Z,43.44
2018-07-12T14:39:01.191Z,42.47
2018-07-12T14:41:30.249Z,42.93
2018-07-12T14:43:59.140Z,43.34
2018-07-12T14:46:28.038Z,43.98
2018-07-12T14:48:56.935Z,44.35
2018-07-12T14:51:25.794Z,45.31
2018-07-12T14:53:55.111Z,47.01
2018-07-12T14:56:24.498Z,48.74
2018-07-12T14:58:53.836Z,47.01
2018-07-12T15:01:23.423Z,47.01
2018-07-12T15:03:52.946Z,47.31
2018-07-12T15:06:22.019Z,47.62
2018-07-12T15:08:51.098Z,48.77
2018-07-12T15:11:20.129Z,47.53
2018-07-12T15:13:49.165Z,47.10
2018-07-12T15:16:18.268Z,46.09
2018-07-12T15:18:47.256Z,44.77
2018-07-12T15:21:16.298Z,44.66
2018-07-12T15:23:45.153Z,44.96
2018-07-12T15:26:14.080Z,46.99
2018-07-12T15:28:43.008Z,45.32
2018-07-12T15:31:11.931Z,45.63
2018-07-12T15:33:40.865Z,44.24
2018-07-12T15:36:09.901Z,44.92
2018-07-12T15:38:38.960Z,45.32
2018-07-12T15:41:08.455Z,45.18
2018-07-12T15:43:37.521Z,45.83
2018-07-12T15:46:06.600Z,46.53
2018-07-12T15:48:35.621Z,47.52
2018-07-12T15:51:04.681Z,47.23
2018-07-12T15:53:33.680Z,47.21
2018-07-12T15:56:02.713Z,45.74
2018-07-12T15:58:31.660Z,48.68
2018-07-12T16:01:00.676Z,47.58
2018-07-12T16:03:29.785Z,47.44
2018-07-12T16:05:59.595Z,46.33
2018-07-12T16:08:28.889Z,46.86
2018-07-12T16:10:57.968Z,46.81
2018-07-12T16:13:26.854Z,45.15
2018-07-12T16:15:56.116Z,44.32
2018-07-12T16:18:25.181Z,45.18
2018-07-12T16:20:54.237Z,44.54
2018-07-12T16:23:23.149Z,44.54
2018-07-12T16:25:52.052Z,43.77
2018-07-12T16:28:20.954Z,42.68
2018-07-12T16:30:49.863Z,42.21
2018-07-12T16:33:18.798Z,44.20
2018-07-12T16:35:47.692Z,42.63
2018-07-12T16:38:16.699Z,42.79
2018-07-12T16:40:45.579Z,41.55
2018-07-12T16:43:14.587Z,42.78
2018-07-12T16:45:43.493Z,42.97
2018-07-12T16:48:12.530Z,42.80
2018-07-12T16:50:41.532Z,42.06
2018-07-12T16:53:10.467Z,42.02
2018-07-12T16:55:39.465Z,42.55
2018-07-12T16:58:08.439Z,42.56
2018-07-12T17:00:37.524Z,43.32
2018-07-12T17:03:06.440Z,42.67
2018-07-12T17:05:35.321Z,44.10
2018-07-12T17:08:04.300Z,43.81
2018-07-12T17:10:33.201Z,43.28
2018-07-12T17:13:02.185Z,43.03
2018-07-12T17:15:31.116Z,45.35
2018-07-12T17:18:00.010Z,46.03
2018-07-12T17:20:29.051Z,47.27
2018-07-12T17:22:57.992Z,48.09
2018-07-12T17:25:26.887Z,48.84
2018-07-12T17:27:55.809Z,50.03
2018-07-12T17:30:24.770Z,50.44
2018-07-12T17:32:53.740Z,51.01
2018-07-12T17:35:22.679Z,52.06
2018-07-12T17:37:51.689Z,51.63
2018-07-12T17:40:20.596Z,52.16
2018-07-12T17:42:49.560Z,52.15
2018-07-12T17:45:18.460Z,52.08
2018-07-12T17:47:47.587Z,49.90
2018-07-12T17:50:16.571Z,47.98
2018-07-12T17:52:45.484Z,46.51
2018-07-12T17:55:14.472Z,45.54
2018-07-12T17:57:43.349Z,43.40
2018-07-12T18:00:12.413Z,44.28
2018-07-12T18:02:41.309Z,40.67
2018-07-12T18:05:10.283Z,41.01
2018-07-12T18:07:39.156Z,43.33
2018-07-12T18:10:08.140Z,46.50
2018-07-12T18:12:37.005Z,51.01
2018-07-12T18:15:06.087Z,52.84
2018-07-12T18:17:50.625Z,54.50
2018-07-12T18:20:23.247Z,56.09
2018-07-12T18:22:52.082Z,57.38
2018-07-12T18:25:21.175Z,58.21
2018-07-12T18:27:50.035Z,59.48
2018-07-12T18:30:18.959Z,61.78
2018-07-12T18:32:47.794Z,64.01
2018-07-12T18:35:16.757Z,65.22
2018-07-12T18:37:45.599Z,65.23
2018-07-12T18:40:14.539Z,67.28
2018-07-12T18:42:43.698Z,66.37
2018-07-12T18:45:12.673Z,64.47
2018-07-12T18:47:41.582Z,62.98
2018-07-12T18:50:10.551Z,63.50
2018-07-12T18:52:39.390Z,63.70
2018-07-12T18:55:08.311Z,64.28
2018-07-12T18:57:37.250Z,64.51
2018-07-12T19:00:06.585Z,65.16
2018-07-12T19:02:35.521Z,65.34
2018-07-12T19:05:04.441Z,65.70
2018-07-12T19:07:33.377Z,65.75
2018-07-12T19:10:02.369Z,66.31
2018-07-12T19:12:31.272Z,66.78
2018-07-12T19:15:00.281Z,67.03
2018-07-12T19:17:29.209Z,67.81
2018-07-12T19:19:58.144Z,68.31
2018-07-12T19:22:27.031Z,68.90
2018-07-12T19:24:55.991Z,69.00
2018-07-12T19:27:24.932Z,69.34
2018-07-12T19:29:53.890Z,69.81
2018-07-12T19:32:22.819Z,70.31
2018-07-12T19:34:51.925Z,70.85
2018-07-12T19:37:20.909Z,71.52
2018-07-12T19:39:49.991Z,71.90
2018-07-12T19:42:18.937Z,72.15
2018-07-12T19:44:47.875Z,72.59
2018-07-12T19:47:16.896Z,72.49
2018-07-12T19:49:45.823Z,72.97
2018-07-12T19:52:14.809Z,72.67
2018-07-12T19:54:43.828Z,72.56
2018-07-12T19:57:13.660Z,72.86
2018-07-12T19:59:42.620Z,72.79
2018-07-12T20:02:11.596Z,72.91
2018-07-12T20:04:40.604Z,72.64
2018-07-12T20:07:09.560Z,72.62
2018-07-12T20:09:38.518Z,73.11
2018-07-12T20:12:07.601Z,73.18
2018-07-12T20:14:36.503Z,73.48
2018-07-12T20:17:05.660Z,73.62
2018-07-12T20:19:34.761Z,73.86
2018-07-12T20:22:03.770Z,74.09
2018-07-12T20:24:32.680Z,74.18
2018-07-12T20:27:01.689Z,74.48
2018-07-12T20:29:30.663Z,75.62
2018-07-12T20:31:59.699Z,75.30
2018-07-12T20:34:28.742Z,75.34
2018-07-12T20:36:57.703Z,75.70
2018-07-12T20:39:26.619Z,76.46
2018-07-12T20:41:55.478Z,76.40
2018-07-12T20:44:24.379Z,76.68
2018-07-12T20:46:53.702Z,76.63
2018-07-12T20:49:22.644Z,76.85
2018-07-12T20:51:51.584Z,77.35
2018-07-12T20:54:20.476Z,77.57
2018-07-12T20:56:49.634Z,77.52
2018-07-12T20:59:18.522Z,77.97
2018-07-12T21:01:47.491Z,78.69
2018-07-12T21:04:16.322Z,79.57
2018-07-12T21:06:45.204Z,79.87
2018-07-12T21:09:14.020Z,80.29
2018-07-12T21:11:42.875Z,80.84
2018-07-12T21:14:11.756Z,80.84
2018-07-12T21:16:40.593Z,81.13
2018-07-12T21:19:09.467Z,80.81
2018-07-12T21:21:38.308Z,80.89
2018-07-12T21:24:07.182Z,80.96
2018-07-12T21:26:36.039Z,80.86
2018-07-12T21:29:04.972Z,81.30
2018-07-12T21:31:33.869Z,81.26
2018-07-12T21:34:02.785Z,81.35
2018-07-12T21:36:31.689Z,81.38
2018-07-12T21:39:00.532Z,81.13
2018-07-12T21:41:29.371Z,81.18
2018-07-12T21:43:58.528Z,80.92
2018-07-12T21:46:27.312Z,81.02
2018-07-12T21:48:56.215Z,81.11
2018-07-12T21:51:25.218Z,81.11
2018-07-12T21:53:54.424Z,81.70
2018-07-12T21:56:23.286Z,82.28
2018-07-12T21:58:52.268Z,82.30
2018-07-12T22:01:21.209Z,82.44
2018-07-12T22:03:50.267Z,82.69
2018-07-12T22:06:24.898Z,82.92
2018-07-12T22:08:53.829Z,83.35
2018-07-12T22:11:22.750Z,83.77
2018-07-12T22:13:51.979Z,84.22
2018-07-12T22:16:20.792Z,84.06
2018-07-12T22:18:49.656Z,84.04
2018-07-12T22:21:18.536Z,84.51
2018-07-12T22:23:47.638Z,84.74
2018-07-12T22:26:16.514Z,85.05
2018-07-12T22:28:45.402Z,85.13
2018-07-12T22:31:14.466Z,85.41
2018-07-12T22:33:43.332Z,85.62
2018-07-12T22:36:12.373Z,85.75
2018-07-12T22:38:41.318Z,85.97
2018-07-12T22:41:10.433Z,85.97
2018-07-12T22:43:39.394Z,86.11
2018-07-12T22:46:08.605Z,86.54
2018-07-12T22:48:37.685Z,86.76
2018-07-12T22:51:06.753Z,87.23
2018-07-12T22:53:35.685Z,88.39
2018-07-12T22:56:04.784Z,88.87
2018-07-12T22:58:33.726Z,89.46
2018-07-12T23:01:02.805Z,89.81
2018-07-12T23:03:31.754Z,89.99
2018-07-12T23:06:00.692Z,90.32
2018-07-12T23:08:29.824Z,90.26
2018-07-12T23:10:58.946Z,90.28
2018-07-12T23:13:27.981Z,90.49
2018-07-12T23:15:57.006Z,91.10
2018-07-12T23:18:25.956Z,91.08
2018-07-12T23:20:54.916Z,91.51
2018-07-12T23:23:23.921Z,91.63
2018-07-12T23:25:53.079Z,91.79
2018-07-12T23:28:21.991Z,92.11
2018-07-12T23:30:51.257Z,92.35
2018-07-12T23:33:20.348Z,92.24
2018-07-12T23:35:49.322Z,92.32
2018-07-12T23:38:18.251Z,92.36
2018-07-12T23:40:47.205Z,92.87
2018-07-12T23:43:16.126Z,93.17
2018-07-12T23:45:45.101Z,93.14
2018-07-12T23:48:14.047Z,93.21
2018-07-12T23:50:43.106Z,93.55
2018-07-12T23:53:12.107Z,93.27
2018-07-12T23:55:41.270Z,93.53
2018-07-12T23:58:10.284Z,93.75
